sensor_id;sensor_type;location;lat;lon;timestamp;temperature;humidity
21335;DHT22;10826;52.536;13.432;2023-04-06T00:00:32;6.70;47.90
21335;DHT22;10826;52.536;13.432;2023-04-06T00:03:18;6.60;47.80
21335;DHT22;10826;52.536;13.432;2023-04-06T00:06:04;6.60;47.60
21335;DHT22;10826;52.536;13.432;2023-04-06T00:08:51;6.60;47.60
21335;DHT22;10826;52.536;13.432;2023-04-06T00:11:36;6.60;47.60
21335;DHT22;10826;52.536;13.432;2023-04-06T00:14:23;6.60;47.40
21335;DHT22;10826;52.536;13.432;2023-04-06T00:17:09;6.60;47.60
21335;DHT22;10826;52.536;13.432;2023-04-06T00:19:54;6.60;47.60
21335;DHT22;10826;52.536;13.432;2023-04-06T00:22:41;6.60;47.70
21335;DHT22;10826;52.536;13.432;2023-04-06T00:25:27;6.60;47.80
21335;DHT22;10826;52.536;13.432;2023-04-06T00:28:13;6.60;48.00
21335;DHT22;10826;52.536;13.432;2023-04-06T00:30:59;6.60;48.00
21335;DHT22;10826;52.536;13.432;2023-04-06T00:33:45;6.50;48.10
21335;DHT22;10826;52.536;13.432;2023-04-06T00:36:32;6.50;48.20
21335;DHT22;10826;52.536;13.432;2023-04-06T00:39:18;6.60;48.40
21335;DHT22;10826;52.536;13.432;2023-04-06T00:42:11;6.50;48.60
21335;DHT22;10826;52.536;13.432;2023-04-06T00:45:07;6.50;48.70
21335;DHT22;10826;52.536;13.432;2023-04-06T00:47:54;6.50;48.60
21335;DHT22;10826;52.536;13.432;2023-04-06T00:50:40;6.50;48.60
21335;DHT22;10826;52.536;13.432;2023-04-06T00:53:26;6.50;48.60
21335;DHT22;10826;52.536;13.432;2023-04-06T00:56:14;6.50;48.70
21335;DHT22;10826;52.536;13.432;2023-04-06T00:59:00;6.40;48.80
21335;DHT22;10826;52.536;13.432;2023-04-06T01:01:46;6.40;48.80
21335;DHT22;10826;52.536;13.432;2023-04-06T01:04:33;6.40;49.10
21335;DHT22;10826;52.536;13.432;2023-04-06T01:07:20;6.40;49.60
21335;DHT22;10826;52.536;13.432;2023-04-06T01:10:06;6.30;49.70
21335;DHT22;10826;52.536;13.432;2023-04-06T01:12:52;6.30;49.90
21335;DHT22;10826;52.536;13.432;2023-04-06T01:15:38;6.20;50.10
21335;DHT22;10826;52.536;13.432;2023-04-06T01:18:28;6.20;50.20
21335;DHT22;10826;52.536;13.432;2023-04-06T01:21:15;6.10;50.30
21335;DHT22;10826;52.536;13.432;2023-04-06T01:24:01;6.10;50.40
21335;DHT22;10826;52.536;13.432;2023-04-06T01:26:47;6.10;50.30
21335;DHT22;10826;52.536;13.432;2023-04-06T01:29:33;6.10;50.40
21335;DHT22;10826;52.536;13.432;2023-04-06T01:32:19;6.10;50.50
21335;DHT22;10826;52.536;13.432;2023-04-06T01:35:06;6.10;50.50
21335;DHT22;10826;52.536;13.432;2023-04-06T01:37:52;6.10;50.40
21335;DHT22;10826;52.536;13.432;2023-04-06T01:40:38;6.10;50.30
21335;DHT22;10826;52.536;13.432;2023-04-06T01:43:24;6.00;50.20
21335;DHT22;10826;52.536;13.432;2023-04-06T01:46:10;6.00;50.40
21335;DHT22;10826;52.536;13.432;2023-04-06T01:48:56;6.00;50.70
21335;DHT22;10826;52.536;13.432;2023-04-06T01:51:42;5.90;50.80
21335;DHT22;10826;52.536;13.432;2023-04-06T01:54:28;5.90;50.80
21335;DHT22;10826;52.536;13.432;2023-04-06T01:57:14;5.80;50.80
21335;DHT22;10826;52.536;13.432;2023-04-06T02:00:00;5.80;50.90
21335;DHT22;10826;52.536;13.432;2023-04-06T02:02:45;5.80;51.00
21335;DHT22;10826;52.536;13.432;2023-04-06T02:05:33;5.70;51.20
21335;DHT22;10826;52.536;13.432;2023-04-06T02:08:23;5.60;51.30
21335;DHT22;10826;52.536;13.432;2023-04-06T02:11:09;5.60;51.30
21335;DHT22;10826;52.536;13.432;2023-04-06T02:13:55;5.60;51.30
21335;DHT22;10826;52.536;13.432;2023-04-06T02:16:41;5.50;51.40
21335;DHT22;10826;52.536;13.432;2023-04-06T02:19:27;5.50;51.50
21335;DHT22;10826;52.536;13.432;2023-04-06T02:22:13;5.40;52.10
21335;DHT22;10826;52.536;13.432;2023-04-06T02:24:59;5.40;51.50
21335;DHT22;10826;52.536;13.432;2023-04-06T02:27:45;5.30;51.60
21335;DHT22;10826;52.536;13.432;2023-04-06T02:30:31;5.30;51.70
21335;DHT22;10826;52.536;13.432;2023-04-06T02:33:19;5.20;51.60
21335;DHT22;10826;52.536;13.432;2023-04-06T02:36:06;5.20;51.50
21335;DHT22;10826;52.536;13.432;2023-04-06T02:38:52;5.10;51.40
21335;DHT22;10826;52.536;13.432;2023-04-06T02:41:40;5.00;51.20
21335;DHT22;10826;52.536;13.432;2023-04-06T02:44:26;5.00;51.30
21335;DHT22;10826;52.536;13.432;2023-04-06T02:47:12;4.80;51.20
21335;DHT22;10826;52.536;13.432;2023-04-06T02:49:58;4.70;51.40
21335;DHT22;10826;52.536;13.432;2023-04-06T02:52:44;4.70;51.70
21335;DHT22;10826;52.536;13.432;2023-04-06T02:55:30;4.60;51.60
21335;DHT22;10826;52.536;13.432;2023-04-06T02:58:16;4.50;51.80
21335;DHT22;10826;52.536;13.432;2023-04-06T03:01:03;4.50;52.00
21335;DHT22;10826;52.536;13.432;2023-04-06T03:03:49;4.40;52.30
21335;DHT22;10826;52.536;13.432;2023-04-06T03:06:36;4.30;52.70
21335;DHT22;10826;52.536;13.432;2023-04-06T03:09:22;4.20;52.80
21335;DHT22;10826;52.536;13.432;2023-04-06T03:12:08;4.10;52.90
21335;DHT22;10826;52.536;13.432;2023-04-06T03:14:54;4.10;52.80
21335;DHT22;10826;52.536;13.432;2023-04-06T03:17:42;4.10;52.90
21335;DHT22;10826;52.536;13.432;2023-04-06T03:20:28;4.00;53.00
21335;DHT22;10826;52.536;13.432;2023-04-06T03:23:15;4.00;53.30
21335;DHT22;10826;52.536;13.432;2023-04-06T03:26:02;3.90;53.40
21335;DHT22;10826;52.536;13.432;2023-04-06T03:28:48;3.90;53.50
21335;DHT22;10826;52.536;13.432;2023-04-06T03:31:34;3.90;53.50
21335;DHT22;10826;52.536;13.432;2023-04-06T03:34:20;3.80;53.60
21335;DHT22;10826;52.536;13.432;2023-04-06T03:37:06;3.70;53.60
21335;DHT22;10826;52.536;13.432;2023-04-06T03:39:52;3.70;53.60
21335;DHT22;10826;52.536;13.432;2023-04-06T03:42:38;3.70;53.60
21335;DHT22;10826;52.536;13.432;2023-04-06T03:45:24;3.70;53.60
21335;DHT22;10826;52.536;13.432;2023-04-06T03:48:10;3.60;53.40
21335;DHT22;10826;52.536;13.432;2023-04-06T03:50:56;3.60;53.40
21335;DHT22;10826;52.536;13.432;2023-04-06T03:53:42;3.60;53.40
21335;DHT22;10826;52.536;13.432;2023-04-06T03:56:28;3.50;53.60
21335;DHT22;10826;52.536;13.432;2023-04-06T03:59:13;3.50;53.70
21335;DHT22;10826;52.536;13.432;2023-04-06T04:02:06;3.50;53.70
21335;DHT22;10826;52.536;13.432;2023-04-06T04:04:52;3.40;53.70
21335;DHT22;10826;52.536;13.432;2023-04-06T04:07:42;3.40;53.80
21335;DHT22;10826;52.536;13.432;2023-04-06T04:10:28;3.30;53.90
21335;DHT22;10826;52.536;13.432;2023-04-06T04:13:15;3.30;53.90
21335;DHT22;10826;52.536;13.432;2023-04-06T04:16:01;3.30;54.00
21335;DHT22;10826;52.536;13.432;2023-04-06T04:18:47;3.30;54.10
21335;DHT22;10826;52.536;13.432;2023-04-06T04:21:44;3.20;53.90
21335;DHT22;10826;52.536;13.432;2023-04-06T04:24:30;3.30;53.90
21335;DHT22;10826;52.536;13.432;2023-04-06T04:27:19;3.20;53.90
21335;DHT22;10826;52.536;13.432;2023-04-06T04:30:06;3.10;53.90
21335;DHT22;10826;52.536;13.432;2023-04-06T04:32:52;3.10;54.60
21335;DHT22;10826;52.536;13.432;2023-04-06T04:35:38;3.10;54.00
21335;DHT22;10826;52.536;13.432;2023-04-06T04:38:24;3.10;54.30
21335;DHT22;10826;52.536;13.432;2023-04-06T04:41:13;3.10;54.50
21335;DHT22;10826;52.536;13.432;2023-04-06T04:44:00;3.10;54.60
21335;DHT22;10826;52.536;13.432;2023-04-06T04:46:46;3.00;54.70
21335;DHT22;10826;52.536;13.432;2023-04-06T04:49:32;3.00;54.80
21335;DHT22;10826;52.536;13.432;2023-04-06T04:52:18;3.00;55.00
21335;DHT22;10826;52.536;13.432;2023-04-06T04:55:05;3.00;55.00
21335;DHT22;10826;52.536;13.432;2023-04-06T04:58:08;3.00;55.20
21335;DHT22;10826;52.536;13.432;2023-04-06T05:00:56;3.00;55.20
21335;DHT22;10826;52.536;13.432;2023-04-06T05:03:42;3.00;55.30
21335;DHT22;10826;52.536;13.432;2023-04-06T05:06:28;2.90;55.50
21335;DHT22;10826;52.536;13.432;2023-04-06T05:09:14;2.90;55.40
21335;DHT22;10826;52.536;13.432;2023-04-06T05:12:00;3.00;55.50
21335;DHT22;10826;52.536;13.432;2023-04-06T05:14:46;3.00;55.50
21335;DHT22;10826;52.536;13.432;2023-04-06T05:17:33;3.00;55.50
21335;DHT22;10826;52.536;13.432;2023-04-06T05:20:19;3.10;55.50
21335;DHT22;10826;52.536;13.432;2023-04-06T05:23:08;3.10;55.40
21335;DHT22;10826;52.536;13.432;2023-04-06T05:25:54;3.20;55.40
21335;DHT22;10826;52.536;13.432;2023-04-06T05:28:40;3.20;55.40
21335;DHT22;10826;52.536;13.432;2023-04-06T05:31:28;3.30;55.50
21335;DHT22;10826;52.536;13.432;2023-04-06T05:34:15;3.30;55.40
21335;DHT22;10826;52.536;13.432;2023-04-06T05:37:01;3.40;55.40
21335;DHT22;10826;52.536;13.432;2023-04-06T05:39:47;3.50;55.40
21335;DHT22;10826;52.536;13.432;2023-04-06T05:42:42;3.50;55.60
21335;DHT22;10826;52.536;13.432;2023-04-06T05:45:28;3.70;55.60
21335;DHT22;10826;52.536;13.432;2023-04-06T05:48:15;3.80;55.60
21335;DHT22;10826;52.536;13.432;2023-04-06T05:51:03;3.90;55.70
21335;DHT22;10826;52.536;13.432;2023-04-06T05:53:51;4.10;55.90
21335;DHT22;10826;52.536;13.432;2023-04-06T05:56:37;4.20;56.20
21335;DHT22;10826;52.536;13.432;2023-04-06T05:59:23;4.30;56.30
21335;DHT22;10826;52.536;13.432;2023-04-06T06:02:09;4.50;56.20
21335;DHT22;10826;52.536;13.432;2023-04-06T06:04:55;4.60;56.00
21335;DHT22;10826;52.536;13.432;2023-04-06T06:07:41;4.80;56.10
21335;DHT22;10826;52.536;13.432;2023-04-06T06:10:27;4.90;56.00
21335;DHT22;10826;52.536;13.432;2023-04-06T06:13:13;5.20;56.60
21335;DHT22;10826;52.536;13.432;2023-04-06T06:16:02;5.70;56.40
21335;DHT22;10826;52.536;13.432;2023-04-06T06:18:50;6.70;56.70
21335;DHT22;10826;52.536;13.432;2023-04-06T06:21:36;8.30;54.00
21335;DHT22;10826;52.536;13.432;2023-04-06T06:24:22;9.70;49.20
21335;DHT22;10826;52.536;13.432;2023-04-06T06:27:15;11.10;46.60
21335;DHT22;10826;52.536;13.432;2023-04-06T06:30:02;12.40;43.00
21335;DHT22;10826;52.536;13.432;2023-04-06T06:32:52;13.60;39.40
21335;DHT22;10826;52.536;13.432;2023-04-06T06:35:38;14.70;37.20
21335;DHT22;10826;52.536;13.432;2023-04-06T06:38:26;15.60;35.40
21335;DHT22;10826;52.536;13.432;2023-04-06T06:41:12;16.30;34.10
21335;DHT22;10826;52.536;13.432;2023-04-06T06:43:58;16.80;32.40
21335;DHT22;10826;52.536;13.432;2023-04-06T06:46:45;17.40;30.40
21335;DHT22;10826;52.536;13.432;2023-04-06T06:49:31;17.80;30.40
21335;DHT22;10826;52.536;13.432;2023-04-06T06:52:17;18.40;30.40
21335;DHT22;10826;52.536;13.432;2023-04-06T06:55:03;19.10;28.70
21335;DHT22;10826;52.536;13.432;2023-04-06T06:57:49;19.80;27.80
21335;DHT22;10826;52.536;13.432;2023-04-06T07:00:35;20.40;26.10
21335;DHT22;10826;52.536;13.432;2023-04-06T07:03:21;20.70;25.50
21335;DHT22;10826;52.536;13.432;2023-04-06T07:06:07;21.00;24.70
21335;DHT22;10826;52.536;13.432;2023-04-06T07:08:53;21.10;22.80
21335;DHT22;10826;52.536;13.432;2023-04-06T07:11:39;20.70;24.40
21335;DHT22;10826;52.536;13.432;2023-04-06T07:14:25;20.60;24.40
21335;DHT22;10826;52.536;13.432;2023-04-06T07:17:11;20.30;24.30
21335;DHT22;10826;52.536;13.432;2023-04-06T07:20:01;19.80;23.90
21335;DHT22;10826;52.536;13.432;2023-04-06T07:22:47;19.00;25.20
21335;DHT22;10826;52.536;13.432;2023-04-06T07:25:33;17.90;25.70
21335;DHT22;10826;52.536;13.432;2023-04-06T07:28:19;17.10;26.80
21335;DHT22;10826;52.536;13.432;2023-04-06T07:31:05;16.60;27.30
21335;DHT22;10826;52.536;13.432;2023-04-06T07:33:51;16.50;28.20
21335;DHT22;10826;52.536;13.432;2023-04-06T07:36:37;16.80;27.20
21335;DHT22;10826;52.536;13.432;2023-04-06T07:39:24;17.30;27.80
21335;DHT22;10826;52.536;13.432;2023-04-06T07:42:11;17.80;26.90
21335;DHT22;10826;52.536;13.432;2023-04-06T07:44:57;18.50;25.50
21335;DHT22;10826;52.536;13.432;2023-04-06T07:47:43;19.00;25.10
21335;DHT22;10826;52.536;13.432;2023-04-06T07:50:29;19.40;24.30
21335;DHT22;10826;52.536;13.432;2023-04-06T07:53:15;19.60;24.30
21335;DHT22;10826;52.536;13.432;2023-04-06T07:56:01;19.90;23.70
21335;DHT22;10826;52.536;13.432;2023-04-06T07:58:48;20.00;24.00
21335;DHT22;10826;52.536;13.432;2023-04-06T08:01:34;20.30;22.40
21335;DHT22;10826;52.536;13.432;2023-04-06T08:04:20;20.50;22.40
21335;DHT22;10826;52.536;13.432;2023-04-06T08:07:06;20.90;21.90
21335;DHT22;10826;52.536;13.432;2023-04-06T08:09:52;21.10;21.80
21335;DHT22;10826;52.536;13.432;2023-04-06T08:12:38;21.10;21.30
21335;DHT22;10826;52.536;13.432;2023-04-06T08:15:24;21.20;20.80
21335;DHT22;10826;52.536;13.432;2023-04-06T08:18:10;21.10;20.50
21335;DHT22;10826;52.536;13.432;2023-04-06T08:20:57;21.10;20.80
21335;DHT22;10826;52.536;13.432;2023-04-06T08:23:43;21.10;20.50
21335;DHT22;10826;52.536;13.432;2023-04-06T08:26:29;21.00;19.90
21335;DHT22;10826;52.536;13.432;2023-04-06T08:29:25;20.80;20.40
21335;DHT22;10826;52.536;13.432;2023-04-06T08:32:11;20.70;20.30
21335;DHT22;10826;52.536;13.432;2023-04-06T08:34:57;20.70;20.40
21335;DHT22;10826;52.536;13.432;2023-04-06T08:37:44;20.70;19.50
21335;DHT22;10826;52.536;13.432;2023-04-06T08:40:30;20.60;19.50
21335;DHT22;10826;52.536;13.432;2023-04-06T08:43:22;20.50;19.60
21335;DHT22;10826;52.536;13.432;2023-04-06T08:46:09;20.50;19.30
21335;DHT22;10826;52.536;13.432;2023-04-06T08:48:58;20.50;19.60
21335;DHT22;10826;52.536;13.432;2023-04-06T08:51:46;20.50;20.20
21335;DHT22;10826;52.536;13.432;2023-04-06T08:54:34;20.60;19.80
21335;DHT22;10826;52.536;13.432;2023-04-06T08:57:20;20.40;18.90
21335;DHT22;10826;52.536;13.432;2023-04-06T09:00:08;20.20;19.40
21335;DHT22;10826;52.536;13.432;2023-04-06T09:02:57;20.20;18.80
21335;DHT22;10826;52.536;13.432;2023-04-06T09:05:44;20.30;19.40
21335;DHT22;10826;52.536;13.432;2023-04-06T09:08:33;20.20;20.70
21335;DHT22;10826;52.536;13.432;2023-04-06T09:11:20;20.00;21.40
21335;DHT22;10826;52.536;13.432;2023-04-06T09:14:06;19.80;20.80
21335;DHT22;10826;52.536;13.432;2023-04-06T09:16:52;19.80;21.30
21335;DHT22;10826;52.536;13.432;2023-04-06T09:19:47;19.90;21.10
21335;DHT22;10826;52.536;13.432;2023-04-06T09:22:40;20.10;19.50
21335;DHT22;10826;52.536;13.432;2023-04-06T09:25:29;20.10;21.00
21335;DHT22;10826;52.536;13.432;2023-04-06T09:28:16;20.10;21.70
21335;DHT22;10826;52.536;13.432;2023-04-06T09:31:05;20.00;19.80
21335;DHT22;10826;52.536;13.432;2023-04-06T09:33:53;20.10;19.40
21335;DHT22;10826;52.536;13.432;2023-04-06T09:36:40;20.10;20.00
21335;DHT22;10826;52.536;13.432;2023-04-06T09:39:28;20.30;21.10
21335;DHT22;10826;52.536;13.432;2023-04-06T09:42:24;20.50;20.70
21335;DHT22;10826;52.536;13.432;2023-04-06T09:45:14;20.80;19.10
21335;DHT22;10826;52.536;13.432;2023-04-06T09:48:00;21.10;19.40
21335;DHT22;10826;52.536;13.432;2023-04-06T09:50:49;21.20;18.50
21335;DHT22;10826;52.536;13.432;2023-04-06T09:53:37;21.10;20.00
21335;DHT22;10826;52.536;13.432;2023-04-06T09:56:30;21.10;18.80
21335;DHT22;10826;52.536;13.432;2023-04-06T10:06:27;19.60;18.90
21335;DHT22;10826;52.536;13.432;2023-04-06T10:09:22;18.80;20.00
21335;DHT22;10826;52.536;13.432;2023-04-06T10:12:20;18.50;21.80
21335;DHT22;10826;52.536;13.432;2023-04-06T10:15:07;18.50;20.10
21335;DHT22;10826;52.536;13.432;2023-04-06T10:17:54;18.50;20.00
21335;DHT22;10826;52.536;13.432;2023-04-06T10:20:51;18.70;19.40
21335;DHT22;10826;52.536;13.432;2023-04-06T10:23:50;18.80;19.60
21335;DHT22;10826;52.536;13.432;2023-04-06T10:26:39;19.00;19.00
21335;DHT22;10826;52.536;13.432;2023-04-06T10:29:25;18.90;18.60
21335;DHT22;10826;52.536;13.432;2023-04-06T10:32:14;18.50;18.00
21335;DHT22;10826;52.536;13.432;2023-04-06T10:35:08;18.00;18.20
21335;DHT22;10826;52.536;13.432;2023-04-06T10:38:05;17.40;19.10
21335;DHT22;10826;52.536;13.432;2023-04-06T10:41:03;17.00;20.90
21335;DHT22;10826;52.536;13.432;2023-04-06T10:43:57;16.40;21.00
21335;DHT22;10826;52.536;13.432;2023-04-06T10:46:52;16.00;21.90
21335;DHT22;10826;52.536;13.432;2023-04-06T10:49:43;15.80;22.80
21335;DHT22;10826;52.536;13.432;2023-04-06T10:52:29;15.60;22.90
21335;DHT22;10826;52.536;13.432;2023-04-06T10:55:19;15.60;23.80
21335;DHT22;10826;52.536;13.432;2023-04-06T10:58:07;15.80;24.40
21335;DHT22;10826;52.536;13.432;2023-04-06T11:00:54;16.10;24.20
21335;DHT22;10826;52.536;13.432;2023-04-06T11:03:53;16.30;25.30
21335;DHT22;10826;52.536;13.432;2023-04-06T11:06:49;16.60;23.50
21335;DHT22;10826;52.536;13.432;2023-04-06T11:09:35;16.90;22.40
21335;DHT22;10826;52.536;13.432;2023-04-06T11:12:26;17.10;23.30
21335;DHT22;10826;52.536;13.432;2023-04-06T11:15:13;17.20;21.90
21335;DHT22;10826;52.536;13.432;2023-04-06T11:18:03;17.20;24.30
21335;DHT22;10826;52.536;13.432;2023-04-06T11:20:51;17.20;23.60
21335;DHT22;10826;52.536;13.432;2023-04-06T11:23:37;17.40;21.50
21335;DHT22;10826;52.536;13.432;2023-04-06T11:26:29;17.50;21.60
21335;DHT22;10826;52.536;13.432;2023-04-06T11:29:16;17.50;22.90
21335;DHT22;10826;52.536;13.432;2023-04-06T11:32:10;17.60;23.40
21335;DHT22;10826;52.536;13.432;2023-04-06T11:34:58;17.80;22.80
21335;DHT22;10826;52.536;13.432;2023-04-06T11:37:45;18.20;22.90
21335;DHT22;10826;52.536;13.432;2023-04-06T11:40:33;18.30;20.20
21335;DHT22;10826;52.536;13.432;2023-04-06T11:43:27;18.40;22.00
21335;DHT22;10826;52.536;13.432;2023-04-06T11:46:18;18.40;20.60
21335;DHT22;10826;52.536;13.432;2023-04-06T11:49:06;18.40;20.00
21335;DHT22;10826;52.536;13.432;2023-04-06T11:51:52;18.40;22.00
21335;DHT22;10826;52.536;13.432;2023-04-06T11:54:38;18.20;20.00
21335;DHT22;10826;52.536;13.432;2023-04-06T11:57:24;18.10;20.80
21335;DHT22;10826;52.536;13.432;2023-04-06T12:00:11;17.80;19.70
21335;DHT22;10826;52.536;13.432;2023-04-06T12:02:57;17.70;20.10
21335;DHT22;10826;52.536;13.432;2023-04-06T12:05:45;17.40;20.40
21335;DHT22;10826;52.536;13.432;2023-04-06T12:08:31;17.00;21.50
21335;DHT22;10826;52.536;13.432;2023-04-06T12:11:16;16.60;23.10
21335;DHT22;10826;52.536;13.432;2023-04-06T12:14:07;16.40;24.20
21335;DHT22;10826;52.536;13.432;2023-04-06T12:16:53;16.40;24.10
21335;DHT22;10826;52.536;13.432;2023-04-06T12:19:39;16.60;25.10
21335;DHT22;10826;52.536;13.432;2023-04-06T12:22:25;16.80;24.60
21335;DHT22;10826;52.536;13.432;2023-04-06T12:25:13;17.00;23.20
21335;DHT22;10826;52.536;13.432;2023-04-06T12:27:59;17.10;21.20
21335;DHT22;10826;52.536;13.432;2023-04-06T12:30:45;17.10;22.00
21335;DHT22;10826;52.536;13.432;2023-04-06T12:33:31;17.10;22.10
21335;DHT22;10826;52.536;13.432;2023-04-06T12:36:19;17.10;22.00
21335;DHT22;10826;52.536;13.432;2023-04-06T12:39:06;17.10;22.90
21335;DHT22;10826;52.536;13.432;2023-04-06T12:41:52;17.20;22.20
21335;DHT22;10826;52.536;13.432;2023-04-06T12:44:38;17.40;22.20
21335;DHT22;10826;52.536;13.432;2023-04-06T12:47:26;17.60;21.00
21335;DHT22;10826;52.536;13.432;2023-04-06T12:50:12;17.70;22.00
21335;DHT22;10826;52.536;13.432;2023-04-06T12:53:00;17.80;21.30
21335;DHT22;10826;52.536;13.432;2023-04-06T12:55:46;17.90;19.50
21335;DHT22;10826;52.536;13.432;2023-04-06T12:58:40;17.80;20.10
21335;DHT22;10826;52.536;13.432;2023-04-06T13:01:27;17.80;20.50
21335;DHT22;10826;52.536;13.432;2023-04-06T13:04:13;17.80;19.00
21335;DHT22;10826;52.536;13.432;2023-04-06T13:06:59;17.60;19.90
21335;DHT22;10826;52.536;13.432;2023-04-06T13:09:45;17.50;20.00
21335;DHT22;10826;52.536;13.432;2023-04-06T13:12:33;17.50;20.00
21335;DHT22;10826;52.536;13.432;2023-04-06T13:15:19;17.40;20.10
21335;DHT22;10826;52.536;13.432;2023-04-06T13:18:05;17.30;20.10
21335;DHT22;10826;52.536;13.432;2023-04-06T13:20:51;17.20;20.80
21335;DHT22;10826;52.536;13.432;2023-04-06T13:23:37;17.10;20.90
21335;DHT22;10826;52.536;13.432;2023-04-06T13:26:23;16.90;20.70
21335;DHT22;10826;52.536;13.432;2023-04-06T13:29:09;16.70;21.20
21335;DHT22;10826;52.536;13.432;2023-04-06T13:31:55;16.60;21.20
21335;DHT22;10826;52.536;13.432;2023-04-06T13:34:41;16.50;21.10
21335;DHT22;10826;52.536;13.432;2023-04-06T13:37:35;16.40;22.00
21335;DHT22;10826;52.536;13.432;2023-04-06T13:40:21;16.20;21.40
21335;DHT22;10826;52.536;13.432;2023-04-06T13:43:07;16.00;21.50
21335;DHT22;10826;52.536;13.432;2023-04-06T13:45:54;15.80;21.40
21335;DHT22;10826;52.536;13.432;2023-04-06T13:48:41;15.60;22.00
21335;DHT22;10826;52.536;13.432;2023-04-06T13:51:27;15.40;22.30
21335;DHT22;10826;52.536;13.432;2023-04-06T13:54:13;15.20;22.90
21335;DHT22;10826;52.536;13.432;2023-04-06T13:56:59;15.00;22.70
21335;DHT22;10826;52.536;13.432;2023-04-06T13:59:46;14.80;23.00
21335;DHT22;10826;52.536;13.432;2023-04-06T14:02:32;14.80;23.50
21335;DHT22;10826;52.536;13.432;2023-04-06T14:05:18;14.70;23.80
21335;DHT22;10826;52.536;13.432;2023-04-06T14:08:04;14.70;23.70
21335;DHT22;10826;52.536;13.432;2023-04-06T14:10:49;14.70;23.00
21335;DHT22;10826;52.536;13.432;2023-04-06T14:13:39;14.80;22.30
21335;DHT22;10826;52.536;13.432;2023-04-06T14:16:28;14.80;22.90
21335;DHT22;10826;52.536;13.432;2023-04-06T14:19:15;14.80;22.80
21335;DHT22;10826;52.536;13.432;2023-04-06T14:22:06;14.70;23.00
21335;DHT22;10826;52.536;13.432;2023-04-06T14:24:56;14.60;23.90
21335;DHT22;10826;52.536;13.432;2023-04-06T14:27:43;14.50;23.70
21335;DHT22;10826;52.536;13.432;2023-04-06T14:30:32;14.50;23.90
21335;DHT22;10826;52.536;13.432;2023-04-06T14:33:18;14.50;24.90
21335;DHT22;10826;52.536;13.432;2023-04-06T14:36:05;14.50;24.50
21335;DHT22;10826;52.536;13.432;2023-04-06T14:38:51;14.50;23.70
21335;DHT22;10826;52.536;13.432;2023-04-06T14:41:37;14.40;23.70
21335;DHT22;10826;52.536;13.432;2023-04-06T14:44:25;14.20;23.20
21335;DHT22;10826;52.536;13.432;2023-04-06T14:47:11;14.10;22.60
21335;DHT22;10826;52.536;13.432;2023-04-06T14:49:57;13.90;22.90
21335;DHT22;10826;52.536;13.432;2023-04-06T14:52:43;13.70;24.40
21335;DHT22;10826;52.536;13.432;2023-04-06T14:55:32;13.60;25.10
21335;DHT22;10826;52.536;13.432;2023-04-06T14:58:19;13.50;25.10
21335;DHT22;10826;52.536;13.432;2023-04-06T15:01:06;13.50;24.90
21335;DHT22;10826;52.536;13.432;2023-04-06T15:03:53;13.40;24.50
21335;DHT22;10826;52.536;13.432;2023-04-06T15:06:41;13.30;25.30
21335;DHT22;10826;52.536;13.432;2023-04-06T15:09:27;13.20;26.20
21335;DHT22;10826;52.536;13.432;2023-04-06T15:12:13;13.10;26.10
21335;DHT22;10826;52.536;13.432;2023-04-06T15:15:00;12.90;26.60
21335;DHT22;10826;52.536;13.432;2023-04-06T15:17:49;12.80;26.20
21335;DHT22;10826;52.536;13.432;2023-04-06T15:20:35;12.70;26.40
21335;DHT22;10826;52.536;13.432;2023-04-06T15:23:22;12.60;26.00
21335;DHT22;10826;52.536;13.432;2023-04-06T15:26:08;12.60;26.50
21335;DHT22;10826;52.536;13.432;2023-04-06T15:28:54;12.50;26.40
21335;DHT22;10826;52.536;13.432;2023-04-06T15:31:45;12.50;26.50
21335;DHT22;10826;52.536;13.432;2023-04-06T15:34:31;12.40;26.40
21335;DHT22;10826;52.536;13.432;2023-04-06T15:37:25;12.40;26.80
21335;DHT22;10826;52.536;13.432;2023-04-06T15:40:15;12.40;27.20
21335;DHT22;10826;52.536;13.432;2023-04-06T15:43:01;12.40;26.80
21335;DHT22;10826;52.536;13.432;2023-04-06T15:45:47;12.40;27.40
21335;DHT22;10826;52.536;13.432;2023-04-06T15:48:33;12.30;27.10
21335;DHT22;10826;52.536;13.432;2023-04-06T15:51:19;12.30;27.30
21335;DHT22;10826;52.536;13.432;2023-04-06T15:54:05;12.30;27.60
21335;DHT22;10826;52.536;13.432;2023-04-06T15:56:52;12.30;27.40
21335;DHT22;10826;52.536;13.432;2023-04-06T15:59:38;12.30;27.30
21335;DHT22;10826;52.536;13.432;2023-04-06T16:02:27;12.30;26.90
21335;DHT22;10826;52.536;13.432;2023-04-06T16:05:13;12.30;27.10
21335;DHT22;10826;52.536;13.432;2023-04-06T16:08:01;12.20;27.40
21335;DHT22;10826;52.536;13.432;2023-04-06T16:10:47;12.20;27.10
21335;DHT22;10826;52.536;13.432;2023-04-06T16:13:34;12.10;27.40
21335;DHT22;10826;52.536;13.432;2023-04-06T16:16:21;12.10;27.90
21335;DHT22;10826;52.536;13.432;2023-04-06T16:19:07;12.00;27.50
21335;DHT22;10826;52.536;13.432;2023-04-06T16:21:53;12.00;28.00
21335;DHT22;10826;52.536;13.432;2023-04-06T16:24:40;12.10;27.60
21335;DHT22;10826;52.536;13.432;2023-04-06T16:27:26;12.00;27.20
21335;DHT22;10826;52.536;13.432;2023-04-06T16:30:14;12.00;27.40
21335;DHT22;10826;52.536;13.432;2023-04-06T16:33:01;12.00;27.20
21335;DHT22;10826;52.536;13.432;2023-04-06T16:35:47;12.00;26.60
21335;DHT22;10826;52.536;13.432;2023-04-06T16:38:33;12.00;27.10
21335;DHT22;10826;52.536;13.432;2023-04-06T16:41:20;11.90;27.50
21335;DHT22;10826;52.536;13.432;2023-04-06T16:44:06;11.90;27.80
21335;DHT22;10826;52.536;13.432;2023-04-06T16:46:53;11.90;28.10
21335;DHT22;10826;52.536;13.432;2023-04-06T16:49:39;11.90;27.90
21335;DHT22;10826;52.536;13.432;2023-04-06T16:52:25;11.80;27.60
21335;DHT22;10826;52.536;13.432;2023-04-06T16:55:12;11.80;27.10
21335;DHT22;10826;52.536;13.432;2023-04-06T16:57:58;11.70;27.70
21335;DHT22;10826;52.536;13.432;2023-04-06T17:00:44;11.70;28.20
21335;DHT22;10826;52.536;13.432;2023-04-06T17:03:32;11.70;28.40
21335;DHT22;10826;52.536;13.432;2023-04-06T17:06:19;11.60;28.80
21335;DHT22;10826;52.536;13.432;2023-04-06T17:09:05;11.60;29.00
21335;DHT22;10826;52.536;13.432;2023-04-06T17:11:51;11.50;28.70
21335;DHT22;10826;52.536;13.432;2023-04-06T17:14:38;11.40;29.40
21335;DHT22;10826;52.536;13.432;2023-04-06T17:17:24;11.40;29.70
21335;DHT22;10826;52.536;13.432;2023-04-06T17:20:10;11.30;30.10
21335;DHT22;10826;52.536;13.432;2023-04-06T17:22:56;11.20;29.70
21335;DHT22;10826;52.536;13.432;2023-04-06T17:25:42;11.20;30.00
21335;DHT22;10826;52.536;13.432;2023-04-06T17:28:27;11.10;30.00
21335;DHT22;10826;52.536;13.432;2023-04-06T17:31:13;11.00;30.00
21335;DHT22;10826;52.536;13.432;2023-04-06T17:34:01;11.00;30.60